Terminal Aerodrome Forecast
Issued by NWS Mt. Holly, NJ

Home | Current Version | Previous Version | Text Only | Print | Product List | Glossary On
Versions: 1 2 3 4 5 6 7 8 9 10 11 12 13 14 15 16 17 18 19 20 21 22 23 24 25 26
724
FTUS41 KPHI 251736
TAFACY
TAF
KACY 251736Z 2518/2618 04009KT P6SM BKN030
     FM252100 05009KT P6SM BKN035
     FM260300 VRB02KT 6SM BR BKN035
      TEMPO 2604/2608 3SM BR BKN020
     FM260800 06004KT P6SM BKN035
     FM261600 11009KT P6SM BKN050=

USA.gov is the U.S. government's official web portal to all federal, state and local government web resources and services.